PWSweather.com
Personal Weather Stations
Station Observations
KKYBOWLI8
Greystone Ii, Bowling Green, KY 42101

Greystone IiBowling Green, KY 42101

Lat: 36.9238, Lon: -86.5206

Elevation: 600

Station Type: Davis Vantage Pro2

www.sokyweather.com

High Low Average
Temperature 87.3°F30.7°C 66.3°F19.1°C 74.9°F23.8°C
Dew Point 76.3°F24.6°C 66.3°F19.1°C 71.6°F22.0°C
Winds 3.8 mph 6.1 kmh Calm Calm 1.0 mph SSE1.6 kmh SSE
Wind Gusts 14.0 mph22.5 kmh -- 4.0 mph6.4 kmh
Humidity 100% 65% 91%
Pressure 30.02 in1016.6 mb 29.83 in1010.2 mb -
Precipitation 0.03 in0.8 mm - -
Hour Temp Dew Point Humidity Winds Wind Gusts Pressure Precip Precip Rate Daily Precip Total
12:00 AM 66.7°F19.3°C 66.7°F19.3°C 100% 0.5 mph S0.8 kmh S 2.0 mph3.2 kmh 29.83 in1010.2 mb 0.00 in0.0 mm 0.00 in0.0 mm 0.00 in0.0 mm
12:10 AM 66.7°F19.3°C 66.7°F19.3°C 100% Calm Calm -- 29.84 in1010.5 mb 0.00 in0.0 mm 0.00 in0.0 mm 0.00 in0.0 mm
12:20 AM 66.7°F19.3°C 66.7°F19.3°C 100% Calm Calm -- 29.84 in1010.5 mb 0.00 in0.0 mm 0.00 in0.0 mm 0.00 in0.0 mm
12:30 AM 66.6°F19.2°C 66.6°F19.2°C 100% Calm Calm -- 29.84 in1010.5 mb 0.00 in0.0 mm 0.00 in0.0 mm 0.00 in0.0 mm
12:40 AM 66.4°F19.1°C 66.4°F19.1°C 100% Calm Calm -- 29.84 in1010.5 mb 0.00 in0.0 mm 0.00 in0.0 mm 0.00 in0.0 mm
12:50 AM 66.3°F19.1°C 66.3°F19.1°C 100% Calm Calm 1.0 mph1.6 kmh 29.84 in1010.5 mb 0.00 in0.0 mm 0.00 in0.0 mm 0.00 in0.0 mm
01:00 AM 66.3°F19.1°C 66.3°F19.1°C 100% Calm Calm -- 29.84 in1010.5 mb 0.00 in0.0 mm 0.00 in0.0 mm 0.00 in0.0 mm
01:10 AM 66.3°F19.1°C 66.3°F19.1°C 100% Calm Calm -- 29.84 in1010.5 mb 0.00 in0.0 mm 0.00 in0.0 mm 0.00 in0.0 mm
01:20 AM 66.3°F19.1°C 66.3°F19.1°C 100% Calm Calm -- 29.84 in1010.5 mb 0.00 in0.0 mm 0.00 in0.0 mm 0.00 in0.0 mm
01:30 AM 66.6°F19.2°C 66.6°F19.2°C 100% Calm Calm 1.0 mph1.6 kmh 29.83 in1010.2 mb 0.00 in0.0 mm 0.00 in0.0 mm 0.00 in0.0 mm
01:40 AM 66.6°F19.2°C 66.6°F19.2°C 100% Calm Calm 1.0 mph1.6 kmh 29.83 in1010.2 mb 0.00 in0.0 mm 0.00 in0.0 mm 0.00 in0.0 mm
01:50 AM 66.4°F19.1°C 66.4°F19.1°C 100% Calm Calm -- 29.83 in1010.2 mb 0.00 in0.0 mm 0.00 in0.0 mm 0.00 in0.0 mm
02:00 AM 66.3°F19.1°C 66.3°F19.1°C 100% Calm Calm -- 29.83 in1010.2 mb 0.00 in0.0 mm 0.00 in0.0 mm 0.00 in0.0 mm
02:10 AM 66.4°F19.1°C 66.4°F19.1°C 100% Calm Calm -- 29.83 in1010.2 mb 0.00 in0.0 mm 0.00 in0.0 mm 0.00 in0.0 mm
02:20 AM 66.4°F19.1°C 66.4°F19.1°C 100% Calm Calm -- 29.84 in1010.5 mb 0.00 in0.0 mm 0.00 in0.0 mm 0.00 in0.0 mm
02:30 AM 66.4°F19.1°C 66.4°F19.1°C 100% Calm Calm -- 29.84 in1010.5 mb 0.00 in0.0 mm 0.00 in0.0 mm 0.00 in0.0 mm
02:40 AM 66.4°F19.1°C 66.4°F19.1°C 100% Calm Calm -- 29.84 in1010.5 mb 0.00 in0.0 mm 0.00 in0.0 mm 0.00 in0.0 mm
02:50 AM 66.4°F19.1°C 66.4°F19.1°C 100% Calm Calm -- 29.84 in1010.5 mb 0.00 in0.0 mm 0.00 in0.0 mm 0.00 in0.0 mm
03:00 AM 66.4°F19.1°C 66.4°F19.1°C 100% Calm Calm 1.0 mph1.6 kmh 29.84 in1010.5 mb 0.00 in0.0 mm 0.00 in0.0 mm 0.00 in0.0 mm
03:10 AM 66.3°F19.1°C 66.3°F19.1°C 100% Calm Calm -- 29.85 in1010.8 mb 0.00 in0.0 mm 0.00 in0.0 mm 0.00 in0.0 mm
03:20 AM 66.6°F19.2°C 66.6°F19.2°C 100% Calm Calm -- 29.84 in1010.5 mb 0.01 in0.3 mm 0.06 in1.5 mm 0.01 in0.3 mm
03:30 AM 66.6°F19.2°C 66.6°F19.2°C 100% Calm Calm -- 29.85 in1010.8 mb 0.01 in0.3 mm 0.00 in0.0 mm 0.01 in0.3 mm
03:40 AM 66.7°F19.3°C 66.7°F19.3°C 100% Calm Calm -- 29.85 in1010.8 mb 0.01 in0.3 mm 0.00 in0.0 mm 0.01 in0.3 mm
03:50 AM 66.7°F19.3°C 66.7°F19.3°C 100% Calm Calm -- 29.85 in1010.8 mb 0.01 in0.3 mm 0.00 in0.0 mm 0.01 in0.3 mm
04:00 AM 66.7°F19.3°C 66.7°F19.3°C 100% Calm Calm -- 29.86 in1011.2 mb 0.01 in0.3 mm 0.00 in0.0 mm 0.01 in0.3 mm
04:10 AM 66.7°F19.3°C 66.7°F19.3°C 100% Calm Calm -- 29.86 in1011.2 mb 0.01 in0.3 mm 0.00 in0.0 mm 0.01 in0.3 mm
04:20 AM 66.9°F19.4°C 66.9°F19.4°C 100% Calm Calm -- 29.86 in1011.2 mb 0.00 in0.0 mm 0.00 in0.0 mm 0.01 in0.3 mm
04:30 AM 67.1°F19.5°C 67.1°F19.5°C 100% Calm Calm -- 29.87 in1011.5 mb 0.00 in0.0 mm 0.00 in0.0 mm 0.01 in0.3 mm
04:40 AM 67.1°F19.5°C 67.1°F19.5°C 100% Calm Calm -- 29.87 in1011.5 mb 0.00 in0.0 mm 0.00 in0.0 mm 0.01 in0.3 mm
04:50 AM 67.1°F19.5°C 67.1°F19.5°C 100% Calm Calm -- 29.87 in1011.5 mb 0.00 in0.0 mm 0.00 in0.0 mm 0.01 in0.3 mm
05:00 AM 67.2°F19.6°C 67.2°F19.6°C 100% Calm Calm 1.0 mph1.6 kmh 29.87 in1011.5 mb 0.00 in0.0 mm 0.00 in0.0 mm 0.01 in0.3 mm
05:10 AM 67.2°F19.6°C 67.2°F19.6°C 100% Calm Calm -- 29.88 in1011.9 mb 0.00 in0.0 mm 0.00 in0.0 mm 0.01 in0.3 mm
05:20 AM 67.4°F19.7°C 67.4°F19.7°C 100% Calm Calm -- 29.88 in1011.9 mb 0.00 in0.0 mm 0.00 in0.0 mm 0.01 in0.3 mm
05:30 AM 67.2°F19.6°C 67.2°F19.6°C 100% Calm Calm -- 29.88 in1011.9 mb 0.00 in0.0 mm 0.00 in0.0 mm 0.01 in0.3 mm
05:40 AM 67.1°F19.5°C 67.1°F19.5°C 100% Calm Calm -- 29.89 in1012.2 mb 0.00 in0.0 mm 0.00 in0.0 mm 0.01 in0.3 mm
05:50 AM 67.1°F19.5°C 67.1°F19.5°C 100% Calm Calm -- 29.89 in1012.2 mb 0.00 in0.0 mm 0.00 in0.0 mm 0.01 in0.3 mm
06:00 AM 67.2°F19.6°C 67.2°F19.6°C 100% Calm Calm -- 29.90 in1012.5 mb 0.00 in0.0 mm 0.00 in0.0 mm 0.01 in0.3 mm
06:10 AM 67.6°F19.8°C 67.6°F19.8°C 100% Calm Calm -- 29.90 in1012.5 mb 0.00 in0.0 mm 0.00 in0.0 mm 0.01 in0.3 mm
06:20 AM 67.7°F19.8°C 67.7°F19.8°C 100% Calm Calm -- 29.90 in1012.5 mb 0.00 in0.0 mm 0.00 in0.0 mm 0.01 in0.3 mm
06:30 AM 68.1°F20.1°C 68.1°F20.1°C 100% Calm Calm -- 29.90 in1012.5 mb 0.00 in0.0 mm 0.00 in0.0 mm 0.01 in0.3 mm
06:40 AM 68.2°F20.1°C 68.2°F20.1°C 100% Calm Calm -- 29.91 in1012.9 mb 0.00 in0.0 mm 0.00 in0.0 mm 0.01 in0.3 mm
06:50 AM 68.2°F20.1°C 68.2°F20.1°C 100% Calm Calm 1.0 mph1.6 kmh 29.91 in1012.9 mb 0.00 in0.0 mm 0.00 in0.0 mm 0.01 in0.3 mm
07:00 AM 68.4°F20.2°C 68.4°F20.2°C 100% Calm Calm -- 29.91 in1012.9 mb 0.00 in0.0 mm 0.00 in0.0 mm 0.01 in0.3 mm
07:10 AM 68.9°F20.5°C 68.9°F20.5°C 100% Calm Calm 1.0 mph1.6 kmh 29.91 in1012.9 mb 0.00 in0.0 mm 0.00 in0.0 mm 0.01 in0.3 mm
07:20 AM 68.9°F20.5°C 68.9°F20.5°C 100% Calm Calm -- 29.92 in1013.2 mb 0.00 in0.0 mm 0.00 in0.0 mm 0.01 in0.3 mm
07:30 AM 68.9°F20.5°C 68.9°F20.5°C 100% Calm Calm 1.0 mph1.6 kmh 29.93 in1013.5 mb 0.00 in0.0 mm 0.00 in0.0 mm 0.01 in0.3 mm
07:40 AM 69.1°F20.6°C 69.1°F20.6°C 100% Calm Calm 4.0 mph6.4 kmh 29.93 in1013.5 mb 0.00 in0.0 mm 0.00 in0.0 mm 0.01 in0.3 mm
07:50 AM 69.2°F20.7°C 69.2°F20.7°C 100% Calm Calm 2.0 mph3.2 kmh 29.93 in1013.5 mb 0.00 in0.0 mm 0.00 in0.0 mm 0.01 in0.3 mm
08:00 AM 69.2°F20.7°C 69.2°F20.7°C 100% Calm Calm 4.0 mph6.4 kmh 29.93 in1013.5 mb 0.00 in0.0 mm 0.00 in0.0 mm 0.01 in0.3 mm
08:10 AM 69.4°F20.8°C 69.4°F20.8°C 100% Calm Calm 1.0 mph1.6 kmh 29.93 in1013.5 mb 0.00 in0.0 mm 0.00 in0.0 mm 0.01 in0.3 mm
08:20 AM 69.4°F20.8°C 69.4°F20.8°C 100% Calm Calm 4.0 mph6.4 kmh 29.93 in1013.5 mb 0.00 in0.0 mm 0.00 in0.0 mm 0.01 in0.3 mm
08:30 AM 70.2°F21.2°C 70.2°F21.2°C 100% Calm Calm 3.0 mph4.8 kmh 29.93 in1013.5 mb 0.00 in0.0 mm 0.00 in0.0 mm 0.01 in0.3 mm
08:40 AM 69.9°F21.1°C 69.9°F21.1°C 100% Calm Calm 3.0 mph4.8 kmh 29.94 in1013.9 mb 0.00 in0.0 mm 0.00 in0.0 mm 0.01 in0.3 mm
08:50 AM 69.6°F20.9°C 69.6°F20.9°C 100% 0.7 mph WSW1.1 kmh WSW 8.0 mph12.9 kmh 29.94 in1013.9 mb 0.00 in0.0 mm 0.00 in0.0 mm 0.01 in0.3 mm
09:00 AM 69.9°F21.1°C 69.9°F21.1°C 100% 0.6 mph WSW1.0 kmh WSW 4.0 mph6.4 kmh 29.94 in1013.9 mb 0.00 in0.0 mm 0.00 in0.0 mm 0.01 in0.3 mm
09:10 AM 69.9°F21.1°C 69.9°F21.1°C 100% 0.9 mph WSW1.4 kmh WSW 5.0 mph8.0 kmh 29.95 in1014.2 mb 0.00 in0.0 mm 0.00 in0.0 mm 0.01 in0.3 mm
09:20 AM 70.2°F21.2°C 70.2°F21.2°C 100% 0.2 mph WSW0.3 kmh WSW 3.0 mph4.8 kmh 29.95 in1014.2 mb 0.00 in0.0 mm 0.00 in0.0 mm 0.01 in0.3 mm
09:30 AM 71.2°F21.8°C 71.2°F21.8°C 100% 0.2 mph WSW0.3 kmh WSW 4.0 mph6.4 kmh 29.94 in1013.9 mb 0.00 in0.0 mm 0.00 in0.0 mm 0.01 in0.3 mm
09:40 AM 71.9°F22.2°C 71.9°F22.2°C 100% Calm Calm 5.0 mph8.0 kmh 29.94 in1013.9 mb 0.00 in0.0 mm 0.00 in0.0 mm 0.01 in0.3 mm
09:50 AM 72.6°F22.6°C 72.6°F22.6°C 100% 0.7 mph WSW1.1 kmh WSW 6.0 mph9.7 kmh 29.94 in1013.9 mb 0.00 in0.0 mm 0.00 in0.0 mm 0.01 in0.3 mm
10:00 AM 72.8°F22.7°C 72.8°F22.7°C 100% 1.0 mph WSW1.6 kmh WSW 7.0 mph11.3 kmh 29.94 in1013.9 mb 0.00 in0.0 mm 0.00 in0.0 mm 0.01 in0.3 mm
10:10 AM 73.6°F23.1°C 73.6°F23.1°C 100% 1.0 mph WSW1.6 kmh WSW 7.0 mph11.3 kmh 29.94 in1013.9 mb 0.00 in0.0 mm 0.00 in0.0 mm 0.01 in0.3 mm
10:20 AM 74.3°F23.5°C 74.3°F23.5°C 100% 1.1 mph WSW1.8 kmh WSW 6.0 mph9.7 kmh 29.95 in1014.2 mb 0.00 in0.0 mm 0.00 in0.0 mm 0.01 in0.3 mm
10:30 AM 74.9°F23.8°C 74.9°F23.8°C 100% 1.8 mph WSW2.9 kmh WSW 8.0 mph12.9 kmh 29.95 in1014.2 mb 0.00 in0.0 mm 0.00 in0.0 mm 0.01 in0.3 mm
10:40 AM 75.4°F24.1°C 75.1°F23.9°C 99% 2.0 mph WSW3.2 kmh WSW 9.0 mph14.5 kmh 29.95 in1014.2 mb 0.00 in0.0 mm 0.00 in0.0 mm 0.01 in0.3 mm
10:50 AM 76.8°F24.9°C 75.9°F24.4°C 97% 2.0 mph WSW3.2 kmh WSW 10.0 mph16.1 kmh 29.95 in1014.2 mb 0.00 in0.0 mm 0.00 in0.0 mm 0.01 in0.3 mm
11:00 AM 77.9°F25.5°C 76.0°F24.4°C 94% 1.4 mph SW2.3 kmh SW 8.0 mph12.9 kmh 29.95 in1014.2 mb 0.00 in0.0 mm 0.00 in0.0 mm 0.01 in0.3 mm
11:10 AM 78.2°F25.7°C 75.0°F23.9°C 90% 1.6 mph WSW2.6 kmh WSW 8.0 mph12.9 kmh 29.94 in1013.9 mb 0.00 in0.0 mm 0.00 in0.0 mm 0.01 in0.3 mm
11:20 AM 78.6°F25.9°C 75.4°F24.1°C 90% 1.8 mph WSW2.9 kmh WSW 9.0 mph14.5 kmh 29.94 in1013.9 mb 0.00 in0.0 mm 0.00 in0.0 mm 0.01 in0.3 mm
11:30 AM 79.1°F26.2°C 76.2°F24.6°C 91% 2.5 mph WSW4.0 kmh WSW 9.0 mph14.5 kmh 29.94 in1013.9 mb 0.00 in0.0 mm 0.00 in0.0 mm 0.01 in0.3 mm
11:40 AM 79.5°F26.4°C 76.0°F24.4°C 89% 1.8 mph WSW2.9 kmh WSW 8.0 mph12.9 kmh 29.94 in1013.9 mb 0.00 in0.0 mm 0.00 in0.0 mm 0.01 in0.3 mm
11:50 AM 79.5°F26.4°C 74.9°F23.8°C 86% 2.1 mph WSW3.4 kmh WSW 11.0 mph17.7 kmh 29.94 in1013.9 mb 0.00 in0.0 mm 0.00 in0.0 mm 0.01 in0.3 mm
12:00 PM 80.2°F26.8°C 75.6°F24.2°C 86% 3.2 mph WSW5.1 kmh WSW 9.0 mph14.5 kmh 29.94 in1013.9 mb 0.00 in0.0 mm 0.00 in0.0 mm 0.01 in0.3 mm
12:10 PM 80.8°F27.1°C 75.9°F24.4°C 85% 2.6 mph WSW4.2 kmh WSW 12.0 mph19.3 kmh 29.94 in1013.9 mb 0.00 in0.0 mm 0.00 in0.0 mm 0.01 in0.3 mm
12:20 PM 80.8°F27.1°C 75.9°F24.4°C 85% 2.7 mph WSW4.3 kmh WSW 9.0 mph14.5 kmh 29.94 in1013.9 mb 0.00 in0.0 mm 0.00 in0.0 mm 0.01 in0.3 mm
12:30 PM 81.4°F27.4°C 75.0°F23.9°C 81% 2.4 mph WSW3.9 kmh WSW 11.0 mph17.7 kmh 29.93 in1013.5 mb 0.00 in0.0 mm 0.00 in0.0 mm 0.01 in0.3 mm
12:40 PM 81.5°F27.5°C 75.1°F23.9°C 81% 3.8 mph WSW6.1 kmh WSW 14.0 mph22.5 kmh 29.93 in1013.5 mb 0.00 in0.0 mm 0.00 in0.0 mm 0.01 in0.3 mm
12:50 PM 82.5°F28.1°C 76.1°F24.5°C 81% 2.6 mph WSW4.2 kmh WSW 12.0 mph19.3 kmh 29.93 in1013.5 mb 0.00 in0.0 mm 0.00 in0.0 mm 0.01 in0.3 mm
01:00 PM 82.1°F27.8°C 75.3°F24.1°C 80% 2.0 mph SW3.2 kmh SW 9.0 mph14.5 kmh 29.93 in1013.5 mb 0.00 in0.0 mm 0.00 in0.0 mm 0.01 in0.3 mm
01:10 PM 82.7°F28.2°C 75.5°F24.2°C 79% 2.2 mph WSW3.5 kmh WSW 12.0 mph19.3 kmh 29.93 in1013.5 mb 0.00 in0.0 mm 0.00 in0.0 mm 0.01 in0.3 mm
01:20 PM 83.1°F28.4°C 76.3°F24.6°C 80% 3.6 mph WSW5.8 kmh WSW 11.0 mph17.7 kmh 29.93 in1013.5 mb 0.00 in0.0 mm 0.00 in0.0 mm 0.01 in0.3 mm
01:30 PM 82.3°F27.9°C 74.7°F23.7°C 78% 3.0 mph WSW4.8 kmh WSW 9.0 mph14.5 kmh 29.94 in1013.9 mb 0.00 in0.0 mm 0.00 in0.0 mm 0.01 in0.3 mm
01:40 PM 82.9°F28.3°C 74.9°F23.8°C 77% 3.0 mph WSW4.8 kmh WSW 11.0 mph17.7 kmh 29.93 in1013.5 mb 0.00 in0.0 mm 0.00 in0.0 mm 0.01 in0.3 mm
01:50 PM 83.9°F28.8°C 76.3°F24.6°C 78% 3.3 mph WSW5.3 kmh WSW 8.0 mph12.9 kmh 29.93 in1013.5 mb 0.00 in0.0 mm 0.00 in0.0 mm 0.01 in0.3 mm
02:00 PM 84.3°F29.1°C 75.5°F24.2°C 75% 2.1 mph WSW3.4 kmh WSW 14.0 mph22.5 kmh 29.93 in1013.5 mb 0.00 in0.0 mm 0.00 in0.0 mm 0.01 in0.3 mm
02:10 PM 83.5°F28.6°C 75.1°F23.9°C 76% 2.9 mph WSW4.7 kmh WSW 12.0 mph19.3 kmh 29.92 in1013.2 mb 0.00 in0.0 mm 0.00 in0.0 mm 0.01 in0.3 mm
02:20 PM 83.9°F28.8°C 75.1°F23.9°C 75% 2.5 mph WSW4.0 kmh WSW 8.0 mph12.9 kmh 29.93 in1013.5 mb 0.00 in0.0 mm 0.00 in0.0 mm 0.01 in0.3 mm
02:30 PM 82.5°F28.1°C 76.1°F24.5°C 81% 3.0 mph WSW4.8 kmh WSW 8.0 mph12.9 kmh 29.93 in1013.5 mb 0.01 in0.3 mm 0.06 in1.5 mm 0.02 in0.5 mm
02:40 PM 80.6°F27.0°C 75.7°F24.3°C 85% 2.1 mph W3.4 kmh W 5.0 mph8.0 kmh 29.92 in1013.2 mb 0.02 in0.5 mm 0.06 in1.5 mm 0.03 in0.8 mm
02:50 PM 81.7°F27.6°C 76.0°F24.4°C 83% 1.0 mph NW1.6 kmh NW 4.0 mph6.4 kmh 29.92 in1013.2 mb 0.02 in0.5 mm 0.00 in0.0 mm 0.03 in0.8 mm
03:00 PM 83.3°F28.5°C 75.3°F24.1°C 77% 1.2 mph WSW1.9 kmh WSW 8.0 mph12.9 kmh 29.92 in1013.2 mb 0.02 in0.5 mm 0.00 in0.0 mm 0.03 in0.8 mm
03:10 PM 83.5°F28.6°C 74.7°F23.7°C 75% 2.8 mph WSW4.5 kmh WSW 9.0 mph14.5 kmh 29.92 in1013.2 mb 0.02 in0.5 mm 0.00 in0.0 mm 0.03 in0.8 mm
03:20 PM 84.1°F28.9°C 75.7°F24.3°C 76% 2.0 mph WSW3.2 kmh WSW 7.0 mph11.3 kmh 29.91 in1012.9 mb 0.02 in0.5 mm 0.00 in0.0 mm 0.03 in0.8 mm
03:30 PM 85.2°F29.6°C 75.6°F24.2°C 73% 1.7 mph W2.7 kmh W 7.0 mph11.3 kmh 29.91 in1012.9 mb 0.01 in0.3 mm 0.00 in0.0 mm 0.03 in0.8 mm
03:40 PM 85.4°F29.7°C 74.5°F23.6°C 70% 2.1 mph WSW3.4 kmh WSW 8.0 mph12.9 kmh 29.91 in1012.9 mb 0.00 in0.0 mm 0.00 in0.0 mm 0.03 in0.8 mm
03:50 PM 85.6°F29.8°C 74.7°F23.7°C 70% 2.8 mph W4.5 kmh W 8.0 mph12.9 kmh 29.91 in1012.9 mb 0.00 in0.0 mm 0.00 in0.0 mm 0.03 in0.8 mm
04:00 PM 86.2°F30.1°C 74.8°F23.8°C 69% 1.8 mph NW2.9 kmh NW 10.0 mph16.1 kmh 29.90 in1012.5 mb 0.00 in0.0 mm 0.00 in0.0 mm 0.03 in0.8 mm
04:10 PM 86.6°F30.3°C 75.6°F24.2°C 70% 2.0 mph WNW3.2 kmh WNW 5.0 mph8.0 kmh 29.90 in1012.5 mb 0.00 in0.0 mm 0.00 in0.0 mm 0.03 in0.8 mm
04:20 PM 86.2°F30.1°C 75.3°F24.1°C 70% 1.8 mph WSW2.9 kmh WSW 7.0 mph11.3 kmh 29.90 in1012.5 mb 0.00 in0.0 mm 0.00 in0.0 mm 0.03 in0.8 mm
04:30 PM 86.0°F30.0°C 75.5°F24.2°C 71% 1.5 mph W2.4 kmh W 7.0 mph11.3 kmh 29.90 in1012.5 mb 0.00 in0.0 mm 0.00 in0.0 mm 0.03 in0.8 mm
04:40 PM 86.8°F30.4°C 75.4°F24.1°C 69% 2.0 mph WNW3.2 kmh WNW 8.0 mph12.9 kmh 29.91 in1012.9 mb 0.00 in0.0 mm 0.00 in0.0 mm 0.03 in0.8 mm
04:50 PM 87.3°F30.7°C 74.1°F23.4°C 65% 1.3 mph W2.1 kmh W 8.0 mph12.9 kmh 29.91 in1012.9 mb 0.00 in0.0 mm 0.00 in0.0 mm 0.03 in0.8 mm
05:00 PM 87.3°F30.7°C 74.5°F23.6°C 66% 1.8 mph W2.9 kmh W 8.0 mph12.9 kmh 29.91 in1012.9 mb 0.00 in0.0 mm 0.00 in0.0 mm 0.03 in0.8 mm
05:10 PM 87.0°F30.6°C 74.3°F23.5°C 66% 2.0 mph W3.2 kmh W 7.0 mph11.3 kmh 29.92 in1013.2 mb 0.00 in0.0 mm 0.00 in0.0 mm 0.03 in0.8 mm
05:20 PM 87.0°F30.6°C 74.3°F23.5°C 66% 1.1 mph WNW1.8 kmh WNW 7.0 mph11.3 kmh 29.92 in1013.2 mb 0.00 in0.0 mm 0.00 in0.0 mm 0.03 in0.8 mm
05:30 PM 86.8°F30.4°C 75.4°F24.1°C 69% 1.5 mph WSW2.4 kmh WSW 4.0 mph6.4 kmh 29.93 in1013.5 mb 0.00 in0.0 mm 0.00 in0.0 mm 0.03 in0.8 mm
05:40 PM 86.4°F30.2°C 75.5°F24.2°C 70% 1.0 mph W1.6 kmh W 6.0 mph9.7 kmh 29.93 in1013.5 mb 0.00 in0.0 mm 0.00 in0.0 mm 0.03 in0.8 mm
05:50 PM 86.0°F30.0°C 75.1°F23.9°C 70% 1.7 mph W2.7 kmh W 8.0 mph12.9 kmh 29.93 in1013.5 mb 0.00 in0.0 mm 0.00 in0.0 mm 0.03 in0.8 mm
06:00 PM 85.2°F29.6°C 75.1°F23.9°C 72% 1.9 mph WSW3.1 kmh WSW 5.0 mph8.0 kmh 29.93 in1013.5 mb 0.00 in0.0 mm 0.00 in0.0 mm 0.03 in0.8 mm
06:10 PM 85.2°F29.6°C 75.6°F24.2°C 73% 0.5 mph WSW0.8 kmh WSW 4.0 mph6.4 kmh 29.94 in1013.9 mb 0.00 in0.0 mm 0.00 in0.0 mm 0.03 in0.8 mm
06:20 PM 84.4°F29.1°C 75.6°F24.2°C 75% 0.7 mph WSW1.1 kmh WSW 4.0 mph6.4 kmh 29.94 in1013.9 mb 0.00 in0.0 mm 0.00 in0.0 mm 0.03 in0.8 mm
06:30 PM 83.5°F28.6°C 74.7°F23.7°C 75% Calm Calm 5.0 mph8.0 kmh 29.94 in1013.9 mb 0.00 in0.0 mm 0.00 in0.0 mm 0.03 in0.8 mm
06:40 PM 82.9°F28.3°C 74.6°F23.7°C 76% Calm Calm 5.0 mph8.0 kmh 29.95 in1014.2 mb 0.00 in0.0 mm 0.00 in0.0 mm 0.03 in0.8 mm
06:50 PM 82.5°F28.1°C 74.6°F23.7°C 77% Calm Calm 3.0 mph4.8 kmh 29.96 in1014.6 mb 0.00 in0.0 mm 0.00 in0.0 mm 0.03 in0.8 mm
07:00 PM 81.2°F27.3°C 72.9°F22.7°C 76% Calm Calm 6.0 mph9.7 kmh 29.96 in1014.6 mb 0.00 in0.0 mm 0.00 in0.0 mm 0.03 in0.8 mm
07:10 PM 79.7°F26.5°C 72.6°F22.6°C 79% 0.1 mph WSW0.2 kmh WSW 2.0 mph3.2 kmh 29.96 in1014.6 mb 0.00 in0.0 mm 0.00 in0.0 mm 0.03 in0.8 mm
07:20 PM 78.8°F26.0°C 72.8°F22.7°C 82% Calm Calm -- 29.96 in1014.6 mb 0.00 in0.0 mm 0.00 in0.0 mm 0.03 in0.8 mm
07:30 PM 78.4°F25.8°C 73.2°F22.9°C 84% Calm Calm -- 29.97 in1014.9 mb 0.00 in0.0 mm 0.00 in0.0 mm 0.03 in0.8 mm
07:40 PM 77.9°F25.5°C 73.0°F22.8°C 85% Calm Calm -- 29.97 in1014.9 mb 0.00 in0.0 mm 0.00 in0.0 mm 0.03 in0.8 mm
07:50 PM 77.7°F25.4°C 73.5°F23.1°C 87% Calm Calm -- 29.98 in1015.2 mb 0.00 in0.0 mm 0.00 in0.0 mm 0.03 in0.8 mm
08:00 PM 77.1°F25.1°C 73.3°F22.9°C 88% Calm Calm -- 29.98 in1015.2 mb 0.00 in0.0 mm 0.00 in0.0 mm 0.03 in0.8 mm
08:10 PM 76.6°F24.8°C 73.4°F23.0°C 90% Calm Calm -- 29.98 in1015.2 mb 0.00 in0.0 mm 0.00 in0.0 mm 0.03 in0.8 mm
08:20 PM 76.1°F24.5°C 73.9°F23.3°C 93% Calm Calm -- 29.98 in1015.2 mb 0.00 in0.0 mm 0.00 in0.0 mm 0.03 in0.8 mm
08:30 PM 75.7°F24.3°C 73.8°F23.2°C 94% Calm Calm -- 29.99 in1015.6 mb 0.00 in0.0 mm 0.00 in0.0 mm 0.03 in0.8 mm
08:40 PM 75.6°F24.2°C 74.1°F23.4°C 95% Calm Calm -- 30.00 in1015.9 mb 0.00 in0.0 mm 0.00 in0.0 mm 0.03 in0.8 mm
08:50 PM 75.9°F24.4°C 74.4°F23.6°C 95% Calm Calm 7.0 mph11.3 kmh 30.01 in1016.3 mb 0.00 in0.0 mm 0.00 in0.0 mm 0.03 in0.8 mm
09:00 PM 76.8°F24.9°C 73.3°F22.9°C 89% 1.7 mph W2.7 kmh W 10.0 mph16.1 kmh 30.01 in1016.3 mb 0.00 in0.0 mm 0.00 in0.0 mm 0.03 in0.8 mm
09:10 PM 77.1°F25.1°C 71.9°F22.2°C 84% 3.6 mph WSW5.8 kmh WSW 13.0 mph20.9 kmh 30.00 in1015.9 mb 0.00 in0.0 mm 0.00 in0.0 mm 0.03 in0.8 mm
09:20 PM 76.6°F24.8°C 72.4°F22.4°C 87% 2.5 mph WSW4.0 kmh WSW 4.0 mph6.4 kmh 29.99 in1015.6 mb 0.00 in0.0 mm 0.00 in0.0 mm 0.03 in0.8 mm
09:30 PM 75.4°F24.1°C 71.9°F22.2°C 89% 0.3 mph S0.5 kmh S 3.0 mph4.8 kmh 29.96 in1014.6 mb 0.00 in0.0 mm 0.00 in0.0 mm 0.03 in0.8 mm
09:40 PM 74.5°F23.6°C 71.7°F22.1°C 91% 0.3 mph S0.5 kmh S 4.0 mph6.4 kmh 29.95 in1014.2 mb 0.00 in0.0 mm 0.00 in0.0 mm 0.03 in0.8 mm
09:50 PM 74.0°F23.3°C 72.2°F22.3°C 94% 1.8 mph S2.9 kmh S 8.0 mph12.9 kmh 29.95 in1014.2 mb 0.00 in0.0 mm 0.00 in0.0 mm 0.03 in0.8 mm
10:00 PM 73.1°F22.8°C 71.9°F22.2°C 96% 1.1 mph S1.8 kmh S 6.0 mph9.7 kmh 29.94 in1013.9 mb 0.00 in0.0 mm 0.00 in0.0 mm 0.03 in0.8 mm
10:10 PM 72.6°F22.6°C 71.4°F21.9°C 96% 0.7 mph S1.1 kmh S 7.0 mph11.3 kmh 29.95 in1014.2 mb 0.00 in0.0 mm 0.00 in0.0 mm 0.03 in0.8 mm
10:20 PM 72.3°F22.4°C 71.1°F21.7°C 96% 0.5 mph WSW0.8 kmh WSW 6.0 mph9.7 kmh 29.96 in1014.6 mb 0.00 in0.0 mm 0.00 in0.0 mm 0.03 in0.8 mm
10:30 PM 71.9°F22.2°C 70.7°F21.5°C 96% 0.8 mph SW1.3 kmh SW 5.0 mph8.0 kmh 29.96 in1014.6 mb 0.00 in0.0 mm 0.00 in0.0 mm 0.03 in0.8 mm
10:40 PM 71.8°F22.1°C 70.6°F21.4°C 96% 0.1 mph SW0.2 kmh SW 5.0 mph8.0 kmh 29.96 in1014.6 mb 0.00 in0.0 mm 0.00 in0.0 mm 0.03 in0.8 mm
10:50 PM 71.6°F22.0°C 70.4°F21.3°C 96% 0.1 mph SW0.2 kmh SW 4.0 mph6.4 kmh 29.97 in1014.9 mb 0.00 in0.0 mm 0.00 in0.0 mm 0.03 in0.8 mm
11:00 PM 71.4°F21.9°C 70.2°F21.2°C 96% Calm Calm 1.0 mph1.6 kmh 29.97 in1014.9 mb 0.00 in0.0 mm 0.00 in0.0 mm 0.03 in0.8 mm
11:10 PM 71.2°F21.8°C 70.3°F21.3°C 97% Calm Calm -- 29.97 in1014.9 mb 0.00 in0.0 mm 0.00 in0.0 mm 0.03 in0.8 mm
11:20 PM 71.1°F21.7°C 70.5°F21.4°C 98% Calm Calm 2.0 mph3.2 kmh 29.97 in1014.9 mb 0.00 in0.0 mm 0.00 in0.0 mm 0.03 in0.8 mm
11:30 PM 70.7°F21.5°C 70.4°F21.3°C 99% Calm Calm -- 29.98 in1015.2 mb 0.00 in0.0 mm 0.00 in0.0 mm 0.03 in0.8 mm
11:40 PM 70.4°F21.3°C 70.1°F21.2°C 99% Calm Calm -- 29.99 in1015.6 mb 0.00 in0.0 mm 0.00 in0.0 mm 0.03 in0.8 mm
11:50 PM 70.2°F21.2°C 70.2°F21.2°C 100% Calm Calm -- 29.99 in1015.6 mb 0.00 in0.0 mm 0.00 in0.0 mm 0.03 in0.8 mm